createdAt,value
2016-07-19T00:00:08.087Z,1015.91
2016-07-19T00:01:08.093Z,1015.87
2016-07-19T00:02:08.097Z,1015.86
2016-07-19T00:03:08.102Z,1015.86
2016-07-19T00:04:08.108Z,1015.81
2016-07-19T00:05:08.113Z,1015.82
2016-07-19T00:06:08.118Z,1015.83
2016-07-19T00:07:08.372Z,1015.81
2016-07-19T00:08:08.128Z,1015.82
2016-07-19T00:09:08.133Z,1015.86
2016-07-19T00:10:08.138Z,1015.85
2016-07-19T00:11:08.144Z,1015.81
2016-07-19T00:12:08.149Z,1015.78
2016-07-19T00:13:08.153Z,1015.81
2016-07-19T00:14:08.167Z,1015.79
2016-07-19T00:15:08.163Z,1015.81
2016-07-19T00:16:08.170Z,1015.83
2016-07-19T00:17:08.173Z,1015.8
2016-07-19T00:18:08.180Z,1015.79
2016-07-19T00:19:08.186Z,1015.78
2016-07-19T00:20:08.195Z,1015.74
2016-07-19T00:21:08.195Z,1015.79
2016-07-19T00:22:08.202Z,1015.78
2016-07-19T00:23:08.208Z,1015.8
2016-07-19T00:24:08.212Z,1015.8
2016-07-19T00:25:08.219Z,1015.79
2016-07-19T00:26:08.233Z,1015.81
2016-07-19T00:27:08.227Z,1015.77
2016-07-19T00:28:08.233Z,1015.71
2016-07-19T00:29:08.239Z,1015.72
2016-07-19T00:30:08.243Z,1015.67
2016-07-19T00:31:09.398Z,1015.66
2016-07-19T00:32:08.266Z,1015.66
2016-07-19T00:33:08.260Z,1015.67
2016-07-19T00:34:08.267Z,1015.69
2016-07-19T00:35:08.272Z,1015.65
2016-07-19T00:36:08.278Z,1015.66
2016-07-19T00:37:08.284Z,1015.64
2016-07-19T00:38:08.294Z,1015.67
2016-07-19T00:39:08.292Z,1015.65
2016-07-19T00:40:08.298Z,1015.66
2016-07-19T00:41:08.305Z,1015.67
2016-07-19T00:42:08.310Z,1015.67
2016-07-19T00:43:08.315Z,1015.66
2016-07-19T00:44:08.321Z,1015.62
2016-07-19T00:45:08.326Z,1015.65
2016-07-19T00:46:08.332Z,1015.66
2016-07-19T00:47:08.338Z,1015.64
2016-07-19T00:48:08.342Z,1015.61
2016-07-19T00:49:08.350Z,1015.68
2016-07-19T00:50:08.353Z,1015.69
2016-07-19T00:51:08.356Z,1015.67
2016-07-19T00:52:08.362Z,1015.63
2016-07-19T00:53:08.869Z,1015.61
2016-07-19T00:54:08.373Z,1015.63
2016-07-19T00:55:08.379Z,1015.66
2016-07-19T00:56:08.386Z,1015.63
2016-07-19T00:57:08.389Z,1015.67
2016-07-19T00:58:08.394Z,1015.66
2016-07-19T00:59:08.399Z,1015.62
2016-07-19T01:00:08.406Z,1015.66
2016-07-19T01:01:08.410Z,1015.6
2016-07-19T01:02:08.416Z,1015.6
2016-07-19T01:03:08.420Z,1015.64
2016-07-19T01:04:08.426Z,1015.64
2016-07-19T01:05:08.430Z,1015.64
2016-07-19T01:06:08.437Z,1015.61
2016-07-19T01:07:08.439Z,1015.65
2016-07-19T01:08:08.444Z,1015.6
2016-07-19T01:09:08.500Z,1015.62
2016-07-19T01:10:08.457Z,1015.61
2016-07-19T01:11:08.460Z,1015.63
2016-07-19T01:12:08.465Z,1015.57
2016-07-19T01:13:08.471Z,1015.57
2016-07-19T01:14:08.476Z,1015.55
2016-07-19T01:15:08.481Z,1015.58
2016-07-19T01:16:08.486Z,1015.55
2016-07-19T01:17:09.611Z,1015.58
2016-07-19T01:18:08.496Z,1015.58
2016-07-19T01:19:08.502Z,1015.54
2016-07-19T01:20:08.506Z,1015.58
2016-07-19T01:21:08.512Z,1015.57
2016-07-19T01:22:08.517Z,1015.54
2016-07-19T01:23:08.521Z,1015.57
2016-07-19T01:24:08.528Z,1015.56
2016-07-19T01:25:08.532Z,1015.55
2016-07-19T01:26:08.536Z,1015.55
2016-07-19T01:27:08.542Z,1015.54
2016-07-19T01:28:08.546Z,1015.51
2016-07-19T01:29:08.551Z,1015.52
2016-07-19T01:30:08.558Z,1015.51
2016-07-19T01:31:08.562Z,1015.5
2016-07-19T01:32:08.568Z,1015.47
2016-07-19T01:33:08.578Z,1015.46
2016-07-19T01:34:08.578Z,1015.45
2016-07-19T01:35:08.583Z,1015.46
2016-07-19T01:36:08.588Z,1015.46
2016-07-19T01:37:08.594Z,1015.43
2016-07-19T01:38:08.598Z,1015.51
2016-07-19T01:39:09.504Z,1015.49
2016-07-19T01:40:08.607Z,1015.47
2016-07-19T01:41:08.612Z,1015.44
2016-07-19T01:42:08.618Z,1015.46
2016-07-19T01:43:08.623Z,1015.46
2016-07-19T01:44:08.628Z,1015.48
2016-07-19T01:45:08.632Z,1015.43
2016-07-19T01:46:08.636Z,1015.42
2016-07-19T01:47:08.642Z,1015.43
2016-07-19T01:48:08.650Z,1015.41
2016-07-19T01:49:08.651Z,1015.46
2016-07-19T01:50:08.655Z,1015.47
2016-07-19T01:51:08.662Z,1015.45
2016-07-19T01:52:08.664Z,1015.47
2016-07-19T01:53:08.669Z,1015.5
2016-07-19T01:54:08.674Z,1015.47
2016-07-19T01:55:08.679Z,1015.45
2016-07-19T01:56:08.684Z,1015.47
2016-07-19T01:57:08.687Z,1015.46
2016-07-19T01:58:08.694Z,1015.47
2016-07-19T01:59:08.697Z,1015.46
2016-07-19T02:00:08.703Z,1015.47
2016-07-19T02:01:09.559Z,1015.46
2016-07-19T02:02:08.711Z,1015.46
2016-07-19T02:03:08.716Z,1015.44
2016-07-19T02:04:08.720Z,1015.43
2016-07-19T02:05:08.726Z,1015.47
2016-07-19T02:06:08.729Z,1015.44
2016-07-19T02:07:08.735Z,1015.47
2016-07-19T02:08:08.741Z,1015.46
2016-07-19T02:09:08.795Z,1015.47
2016-07-19T02:10:08.748Z,1015.47
2016-07-19T02:11:08.754Z,1015.45
2016-07-19T02:12:08.761Z,1015.44
2016-07-19T02:13:08.763Z,1015.45
2016-07-19T02:14:08.768Z,1015.44
2016-07-19T02:15:08.773Z,1015.42
2016-07-19T02:16:08.775Z,1015.42
2016-07-19T02:17:08.781Z,1015.42
2016-07-19T02:18:08.785Z,1015.43
2016-07-19T02:19:08.791Z,1015.41
2016-07-19T02:20:08.795Z,1015.41
2016-07-19T02:21:08.800Z,1015.41
2016-07-19T02:22:08.805Z,1015.4
2016-07-19T02:23:09.160Z,1015.42
2016-07-19T02:24:08.813Z,1015.41
2016-07-19T02:25:08.817Z,1015.41
2016-07-19T02:26:08.822Z,1015.42
2016-07-19T02:27:08.828Z,1015.48
2016-07-19T02:28:08.832Z,1015.45
2016-07-19T02:29:08.836Z,1015.46
2016-07-19T02:30:08.842Z,1015.44
2016-07-19T02:31:08.846Z,1015.45
2016-07-19T02:32:08.849Z,1015.43
2016-07-19T02:33:08.855Z,1015.4
2016-07-19T02:34:08.867Z,1015.4
2016-07-19T02:35:08.865Z,1015.39
2016-07-19T02:36:08.869Z,1015.38
2016-07-19T02:37:08.873Z,1015.39
2016-07-19T02:38:08.878Z,1015.41
2016-07-19T02:39:08.882Z,1015.38
2016-07-19T02:40:08.886Z,1015.38
2016-07-19T02:41:08.891Z,1015.37
2016-07-19T02:42:08.896Z,1015.36
2016-07-19T02:43:08.900Z,1015.39
2016-07-19T02:44:08.906Z,1015.35
2016-07-19T02:45:08.910Z,1015.36
2016-07-19T02:46:08.917Z,1015.33
2016-07-19T02:47:09.920Z,1015.38
2016-07-19T02:48:08.924Z,1015.37
2016-07-19T02:49:08.929Z,1015.39
2016-07-19T02:50:08.933Z,1015.36
2016-07-19T02:51:08.938Z,1015.36
2016-07-19T02:52:08.944Z,1015.37
2016-07-19T02:53:08.949Z,1015.34
2016-07-19T02:54:08.954Z,1015.35
2016-07-19T02:55:08.959Z,1015.33
2016-07-19T02:56:08.963Z,1015.32
2016-07-19T02:57:08.970Z,1015.3
2016-07-19T02:58:08.973Z,1015.27
2016-07-19T02:59:08.979Z,1015.28
2016-07-19T03:00:08.984Z,1015.25
2016-07-19T03:01:08.989Z,1015.27
2016-07-19T03:02:08.993Z,1015.26
2016-07-19T03:03:08.998Z,1015.23
2016-07-19T03:04:09.005Z,1015.25
2016-07-19T03:05:09.008Z,1015.23
2016-07-19T03:06:09.017Z,1015.22
2016-07-19T03:07:09.021Z,1015.19
2016-07-19T03:08:09.025Z,1015.18
2016-07-19T03:09:09.493Z,1015.19
2016-07-19T03:10:09.034Z,1015.18
2016-07-19T03:11:09.041Z,1015.19
2016-07-19T03:12:09.048Z,1015.17
2016-07-19T03:13:09.052Z,1015.21
2016-07-19T03:14:09.056Z,1015.2
2016-07-19T03:15:09.062Z,1015.19
2016-07-19T03:16:09.066Z,1015.19
2016-07-19T03:17:09.071Z,1015.14
2016-07-19T03:18:09.078Z,1015.19
2016-07-19T03:19:09.084Z,1015.16
2016-07-19T03:20:09.086Z,1015.15
2016-07-19T03:21:09.093Z,1015.14
2016-07-19T03:22:09.097Z,1015.14
2016-07-19T03:23:09.103Z,1015.17
2016-07-19T03:24:09.107Z,1015.16
2016-07-19T03:25:09.113Z,1015.15
2016-07-19T03:26:09.172Z,1015.15
2016-07-19T03:27:09.122Z,1015.17
2016-07-19T03:28:09.129Z,1015.16
2016-07-19T03:29:09.134Z,1015.19
2016-07-19T03:30:09.141Z,1015.19
2016-07-19T03:31:09.146Z,1015.19
2016-07-19T03:32:09.150Z,1015.18
2016-07-19T03:33:09.156Z,1015.19
2016-07-19T03:34:09.160Z,1015.18
2016-07-19T03:35:09.165Z,1015.15
2016-07-19T03:36:09.171Z,1015.16
2016-07-19T03:37:09.179Z,1015.18
2016-07-19T03:38:09.179Z,1015.18
2016-07-19T03:39:09.184Z,1015.16
2016-07-19T03:40:09.190Z,1015.15
2016-07-19T03:41:09.194Z,1015.18
2016-07-19T03:42:09.199Z,1015.16
2016-07-19T03:43:09.204Z,1015.2
2016-07-19T03:44:09.211Z,1015.17
2016-07-19T03:45:09.213Z,1015.17
2016-07-19T03:46:09.218Z,1015.12
2016-07-19T03:47:09.225Z,1015.14
2016-07-19T03:48:09.227Z,1015.12
2016-07-19T03:49:09.233Z,1015.15
2016-07-19T03:50:09.236Z,1015.18
2016-07-19T03:51:09.240Z,1015.17
2016-07-19T03:52:09.245Z,1015.2
2016-07-19T03:53:09.251Z,1015.18
2016-07-19T03:54:09.256Z,1015.14
2016-07-19T03:55:09.274Z,1015.21
2016-07-19T03:56:09.324Z,1015.21
2016-07-19T03:57:09.270Z,1015.25
2016-07-19T03:58:09.274Z,1015.23
2016-07-19T03:59:09.280Z,1015.22
2016-07-19T04:00:09.283Z,1015.22
2016-07-19T04:01:09.288Z,1015.17
2016-07-19T04:02:09.299Z,1015.21
2016-07-19T04:03:09.297Z,1015.23
2016-07-19T04:04:09.674Z,1015.24
2016-07-19T04:05:09.308Z,1015.23
2016-07-19T04:06:09.312Z,1015.22
2016-07-19T04:07:09.317Z,1015.25
2016-07-19T04:08:09.322Z,1015.21
2016-07-19T04:09:09.327Z,1015.25
2016-07-19T04:10:09.332Z,1015.26
2016-07-19T04:11:09.336Z,1015.19
2016-07-19T04:12:09.342Z,1015.21
2016-07-19T04:13:09.345Z,1015.26
2016-07-19T04:14:09.350Z,1015.23
2016-07-19T04:15:09.355Z,1015.21
2016-07-19T04:16:09.360Z,1015.22
2016-07-19T04:17:09.366Z,1015.25
2016-07-19T04:18:09.369Z,1015.26
2016-07-19T04:19:09.379Z,1015.24
2016-07-19T04:20:09.379Z,1015.26
2016-07-19T04:21:09.384Z,1015.24
2016-07-19T04:22:09.388Z,1015.28
2016-07-19T04:23:09.393Z,1015.28
2016-07-19T04:24:09.398Z,1015.29
2016-07-19T04:25:09.416Z,1015.26
2016-07-19T04:26:09.409Z,1015.3
2016-07-19T04:27:09.432Z,1015.3
2016-07-19T04:28:09.416Z,1015.22
2016-07-19T04:29:09.453Z,1015.27
2016-07-19T04:30:09.426Z,1015.25
2016-07-19T04:31:09.435Z,1015.29
2016-07-19T04:32:09.437Z,1015.27
2016-07-19T04:33:09.441Z,1015.22
2016-07-19T04:34:09.447Z,1015.24
2016-07-19T04:35:09.450Z,1015.3
2016-07-19T04:36:10.134Z,1015.29
2016-07-19T04:37:09.459Z,1015.29
2016-07-19T04:38:09.465Z,1015.29
2016-07-19T04:39:09.469Z,1015.35
2016-07-19T04:40:09.479Z,1015.32
2016-07-19T04:41:09.484Z,1015.3
2016-07-19T04:42:09.485Z,1015.35
2016-07-19T04:43:09.530Z,1015.35
2016-07-19T04:44:09.492Z,1015.36
2016-07-19T04:45:09.499Z,1015.4
2016-07-19T04:46:09.558Z,1015.3
2016-07-19T04:47:09.509Z,1015.34
2016-07-19T04:48:09.511Z,1015.36
2016-07-19T04:49:09.517Z,1015.36
2016-07-19T04:50:09.522Z,1015.38
2016-07-19T04:51:09.527Z,1015.34
2016-07-19T04:52:09.531Z,1015.41
2016-07-19T04:53:09.576Z,1015.4
2016-07-19T04:54:09.541Z,1015.4
2016-07-19T04:55:09.545Z,1015.45
2016-07-19T04:56:09.577Z,1015.44
2016-07-19T04:57:09.606Z,1015.43
2016-07-19T04:58:09.559Z,1015.48
2016-07-19T04:59:09.591Z,1015.65
2016-07-19T05:00:09.620Z,1015.7
2016-07-19T05:01:09.574Z,1015.77
2016-07-19T05:02:09.579Z,1015.8
2016-07-19T05:03:09.585Z,1015.83
2016-07-19T05:04:09.590Z,1015.83
2016-07-19T05:05:09.595Z,1015.95
2016-07-19T05:06:09.641Z,1015.97
2016-07-19T05:07:09.610Z,1015.94
2016-07-19T05:08:09.614Z,1015.97
2016-07-19T05:09:09.618Z,1016.03
2016-07-19T05:10:09.624Z,1016.06
2016-07-19T05:11:09.630Z,1016.08
2016-07-19T05:12:09.658Z,1016.16
2016-07-19T05:13:09.740Z,1016.19
2016-07-19T05:14:09.700Z,1016.19
2016-07-19T05:15:09.656Z,1016.22
2016-07-19T05:16:09.714Z,1016.26
2016-07-19T05:17:09.670Z,1016.29
2016-07-19T05:18:09.767Z,1016.3
2016-07-19T05:19:09.738Z,1016.28
2016-07-19T05:20:09.809Z,1016.3
2016-07-19T05:21:09.788Z,1016.34
2016-07-19T05:22:09.704Z,1016.34
2016-07-19T05:23:09.797Z,1016.4
2016-07-19T05:24:09.719Z,1016.36
2016-07-19T05:25:09.727Z,1016.42
2016-07-19T05:26:09.733Z,1016.39
2016-07-19T05:27:09.740Z,1016.38
2016-07-19T05:28:09.748Z,1016.4
2016-07-19T05:29:09.756Z,1016.43
2016-07-19T05:30:09.794Z,1016.47
2016-07-19T05:31:09.772Z,1016.47
2016-07-19T05:32:09.780Z,1016.47
2016-07-19T05:33:09.871Z,1016.52
2016-07-19T05:34:09.797Z,1016.52
2016-07-19T05:35:09.805Z,1016.54
2016-07-19T05:36:09.812Z,1016.59
2016-07-19T05:37:09.850Z,1016.61
2016-07-19T05:38:09.827Z,1016.6
2016-07-19T05:39:09.838Z,1016.6
2016-07-19T05:40:09.870Z,1016.65
2016-07-19T05:41:09.929Z,1016.67
2016-07-19T05:42:09.909Z,1016.65
2016-07-19T05:43:09.937Z,1016.67
2016-07-19T05:44:09.953Z,1016.75
2016-07-19T05:45:09.887Z,1016.7
2016-07-19T05:46:09.898Z,1016.77
2016-07-19T05:47:09.972Z,1016.81
2016-07-19T05:48:09.973Z,1016.79
2016-07-19T05:49:09.924Z,1016.83
2016-07-19T05:50:09.933Z,1016.81
2016-07-19T05:51:09.942Z,1016.87
2016-07-19T05:52:09.952Z,1016.87
2016-07-19T05:53:10.033Z,1016.92
2016-07-19T05:54:10.036Z,1016.99
2016-07-19T05:55:09.977Z,1017.02
2016-07-19T05:56:09.989Z,1017.05
2016-07-19T05:57:09.996Z,1017.12
2016-07-19T05:58:10.099Z,1017.2
2016-07-19T05:59:10.095Z,1017.23
2016-07-19T06:00:10.042Z,1017.32
2016-07-19T06:01:10.080Z,1017.39
2016-07-19T06:02:10.051Z,1017.4
2016-07-19T06:03:10.085Z,1017.44
2016-07-19T06:04:10.064Z,1017.48
2016-07-19T06:05:10.178Z,1017.5
2016-07-19T06:06:10.084Z,1017.54
2016-07-19T06:07:11.219Z,1017.56
2016-07-19T06:08:10.123Z,1017.52
2016-07-19T06:09:10.113Z,1017.57
2016-07-19T06:10:10.124Z,1017.57
2016-07-19T06:11:10.132Z,1017.63
2016-07-19T06:12:10.345Z,1017.61
2016-07-19T06:13:10.158Z,1017.58
2016-07-19T06:14:11.296Z,1017.55
2016-07-19T06:15:10.175Z,1017.47
2016-07-19T06:16:10.184Z,1017.48
2016-07-19T06:17:10.206Z,1017.48
2016-07-19T06:18:10.207Z,1017.55
2016-07-19T06:19:10.277Z,1017.53
2016-07-19T06:20:10.282Z,1017.55
2016-07-19T06:21:10.320Z,1017.54
2016-07-19T06:22:10.329Z,1017.5
2016-07-19T06:23:10.258Z,1017.47
2016-07-19T06:24:11.071Z,1017.43
2016-07-19T06:25:10.316Z,1017.46
2016-07-19T06:26:10.289Z,1017.39
2016-07-19T06:27:10.302Z,1017.36
2016-07-19T06:28:10.383Z,1017.43
2016-07-19T06:29:10.322Z,1017.28
2016-07-19T06:30:10.368Z,1017.27
2016-07-19T06:31:10.527Z,1017.27
2016-07-19T06:32:10.419Z,1017.24
2016-07-19T06:33:10.364Z,1017.18
2016-07-19T06:34:10.376Z,1017.14
2016-07-19T06:35:10.386Z,1017.19
2016-07-19T06:36:10.474Z,1017.19
2016-07-19T06:37:10.488Z,1017.19
2016-07-19T06:38:10.441Z,1017.12
2016-07-19T06:39:10.439Z,1017.07
2016-07-19T06:40:10.441Z,1017.04
2016-07-19T06:41:10.453Z,1017.01
2016-07-19T06:42:10.463Z,1016.98
2016-07-19T06:43:11.618Z,1016.95
2016-07-19T06:44:10.546Z,1017.01
2016-07-19T06:45:10.521Z,1016.99
2016-07-19T06:46:10.552Z,1016.95
2016-07-19T06:47:10.517Z,1016.97
2016-07-19T06:48:10.603Z,1016.95
2016-07-19T06:49:10.539Z,1016.96
2016-07-19T06:50:10.551Z,1016.98
2016-07-19T06:51:10.569Z,1016.96
2016-07-19T06:52:10.622Z,1016.99
2016-07-19T06:53:10.676Z,1016.88
2016-07-19T06:54:10.644Z,1016.85
2016-07-19T06:55:10.648Z,1016.8
2016-07-19T06:56:10.691Z,1016.76
2016-07-19T06:57:10.654Z,1016.78
2016-07-19T06:58:10.692Z,1016.77
2016-07-19T06:59:10.650Z,1016.81
2016-07-19T07:00:10.661Z,1016.81
2016-07-19T07:01:10.711Z,1016.8
2016-07-19T07:02:10.705Z,1016.8
2016-07-19T07:03:10.695Z,1016.79
2016-07-19T07:04:10.734Z,1016.81
2016-07-19T07:05:10.773Z,1016.78
2016-07-19T07:06:10.769Z,1016.72
2016-07-19T07:07:10.741Z,1016.75
2016-07-19T07:08:10.753Z,1016.72
2016-07-19T07:09:10.806Z,1016.69
2016-07-19T07:10:10.814Z,1016.67
2016-07-19T07:11:10.787Z,1016.69
2016-07-19T07:12:10.800Z,1016.68
2016-07-19T07:13:10.817Z,1016.66
2016-07-19T07:14:10.823Z,1016.67
2016-07-19T07:15:10.835Z,1016.63
2016-07-19T07:16:10.847Z,1016.69
2016-07-19T07:17:10.858Z,1016.63
2016-07-19T07:18:10.879Z,1016.61
2016-07-19T07:19:10.883Z,1016.59
2016-07-19T07:20:10.899Z,1016.56
2016-07-19T07:21:10.905Z,1016.56
2016-07-19T07:22:11.011Z,1016.54
2016-07-19T07:23:10.964Z,1016.57
2016-07-19T07:24:10.988Z,1016.57
2016-07-19T07:25:10.954Z,1016.56
2016-07-19T07:26:10.988Z,1016.55
2016-07-19T07:27:10.976Z,1016.54
2016-07-19T07:28:11.042Z,1016.54
2016-07-19T07:29:11.087Z,1016.51
2016-07-19T07:30:11.012Z,1016.48
2016-07-19T07:31:11.077Z,1016.46
2016-07-19T07:32:11.063Z,1016.47
2016-07-19T07:33:11.072Z,1016.43
2016-07-19T07:34:11.073Z,1016.42
2016-07-19T07:35:11.128Z,1016.41
2016-07-19T07:36:11.083Z,1016.42
2016-07-19T07:37:11.095Z,1016.44
2016-07-19T07:38:11.127Z,1016.49
2016-07-19T07:39:11.118Z,1016.46
2016-07-19T07:40:11.130Z,1016.39
2016-07-19T07:41:11.165Z,1016.36
2016-07-19T07:42:11.179Z,1016.38
2016-07-19T07:43:11.168Z,1016.44
2016-07-19T07:44:11.227Z,1016.35
2016-07-19T07:45:11.240Z,1016.1
2016-07-19T07:46:11.235Z,1015.82
2016-07-19T07:47:11.217Z,1015.68
2016-07-19T07:48:11.301Z,1015.7
2016-07-19T07:49:11.297Z,1015.65
2016-07-19T07:50:11.273Z,1015.64
2016-07-19T07:51:11.289Z,1015.67
2016-07-19T07:52:11.321Z,1015.62
2016-07-19T07:53:11.283Z,1015.66
2016-07-19T07:54:11.292Z,1015.71
2016-07-19T07:55:11.312Z,1015.7
2016-07-19T07:56:11.312Z,1015.68
2016-07-19T07:57:11.337Z,1015.67
2016-07-19T07:58:11.364Z,1015.72
2016-07-19T07:59:11.341Z,1015.7
2016-07-19T08:00:11.384Z,1015.72
2016-07-19T08:01:11.389Z,1015.71
2016-07-19T08:02:11.369Z,1015.67
2016-07-19T08:03:11.377Z,1015.69
2016-07-19T08:04:11.438Z,1015.68
2016-07-19T08:05:11.399Z,1015.64
2016-07-19T08:06:11.405Z,1015.67
2016-07-19T08:07:11.418Z,1015.66
2016-07-19T08:08:11.444Z,1015.68
2016-07-19T08:09:11.494Z,1015.64
2016-07-19T08:10:11.477Z,1015.66
2016-07-19T08:11:11.501Z,1015.64
2016-07-19T08:12:11.550Z,1015.66
2016-07-19T08:13:11.466Z,1015.63
2016-07-19T08:14:11.476Z,1015.63
2016-07-19T08:15:11.535Z,1015.64
2016-07-19T08:16:11.575Z,1015.64
2016-07-19T08:17:12.353Z,1015.63
2016-07-19T08:18:11.513Z,1015.65
2016-07-19T08:19:11.519Z,1015.59
2016-07-19T08:20:11.529Z,1015.58
2016-07-19T08:21:11.579Z,1015.55
2016-07-19T08:22:11.657Z,1015.62
2016-07-19T08:23:11.552Z,1015.58
2016-07-19T08:24:11.611Z,1015.57
2016-07-19T08:25:11.611Z,1015.56
2016-07-19T08:26:11.578Z,1015.56
2016-07-19T08:27:11.585Z,1015.57
2016-07-19T08:28:11.640Z,1015.54
2016-07-19T08:29:11.607Z,1015.54
2016-07-19T08:30:11.611Z,1015.55
2016-07-19T08:31:11.618Z,1015.56
2016-07-19T08:32:11.660Z,1015.53
2016-07-19T08:33:11.715Z,1015.58
2016-07-19T08:34:11.648Z,1015.56
2016-07-19T08:35:11.684Z,1015.56
2016-07-19T08:36:11.678Z,1015.58
2016-07-19T08:37:11.669Z,1015.53
2016-07-19T08:38:11.710Z,1015.54
2016-07-19T08:39:11.735Z,1015.53
2016-07-19T08:40:11.734Z,1015.58
2016-07-19T08:41:11.748Z,1015.54
2016-07-19T08:42:11.708Z,1015.51
2016-07-19T08:43:11.998Z,1015.51
2016-07-19T08:44:11.726Z,1015.52
2016-07-19T08:45:11.784Z,1015.53
2016-07-19T08:46:12.443Z,1015.52
2016-07-19T08:47:11.750Z,1015.59
2016-07-19T08:48:11.757Z,1015.54
2016-07-19T08:49:11.816Z,1015.54
2016-07-19T08:50:11.812Z,1015.52
2016-07-19T08:51:11.796Z,1015.56
2016-07-19T08:52:11.813Z,1015.54
2016-07-19T08:53:11.887Z,1015.56
2016-07-19T08:54:11.807Z,1015.52
2016-07-19T08:55:11.816Z,1015.56
2016-07-19T08:56:11.906Z,1015.56
2016-07-19T08:57:11.831Z,1015.58
2016-07-19T08:58:11.916Z,1015.58
2016-07-19T08:59:11.848Z,1015.58
2016-07-19T09:00:11.855Z,1015.57
2016-07-19T09:01:11.913Z,1015.59
2016-07-19T09:02:13.033Z,1015.61
2016-07-19T09:03:11.943Z,1015.61
2016-07-19T09:04:11.965Z,1015.59
2016-07-19T09:05:11.896Z,1015.61
2016-07-19T09:06:11.932Z,1015.58
2016-07-19T09:07:11.988Z,1015.56
2016-07-19T09:08:11.952Z,1015.6
2016-07-19T09:09:11.947Z,1015.57
2016-07-19T09:10:11.999Z,1015.57
2016-07-19T09:11:11.961Z,1015.54
2016-07-19T09:12:11.954Z,1015.57
2016-07-19T09:13:11.962Z,1015.55
2016-07-19T09:14:12.005Z,1015.57
2016-07-19T09:15:11.993Z,1015.56
2016-07-19T09:16:12.040Z,1015.54
2016-07-19T09:17:12.082Z,1015.55
2016-07-19T09:18:12.002Z,1015.53
2016-07-19T09:19:12.132Z,1015.51
2016-07-19T09:20:12.019Z,1015.53
2016-07-19T09:21:12.027Z,1015.56
2016-07-19T09:22:12.035Z,1015.5
2016-07-19T09:23:12.042Z,1015.49
2016-07-19T09:24:12.127Z,1015.51
2016-07-19T09:25:12.088Z,1015.5
2016-07-19T09:26:12.098Z,1015.5
2016-07-19T09:27:12.151Z,1015.46
2016-07-19T09:28:12.085Z,1015.44
2016-07-19T09:29:12.093Z,1015.43
2016-07-19T09:30:12.138Z,1015.42
2016-07-19T09:31:12.133Z,1015.4
2016-07-19T09:32:12.198Z,1015.38
2016-07-19T09:33:12.198Z,1015.42
2016-07-19T09:34:12.135Z,1015.39
2016-07-19T09:35:12.213Z,1015.38
2016-07-19T09:36:12.223Z,1015.38
2016-07-19T09:37:12.227Z,1015.38
2016-07-19T09:38:12.222Z,1015.37
2016-07-19T09:39:12.209Z,1015.35
2016-07-19T09:40:12.182Z,1015.37
2016-07-19T09:41:12.275Z,1015.38
2016-07-19T09:42:12.199Z,1015.37
2016-07-19T09:43:12.205Z,1015.37
2016-07-19T09:44:12.214Z,1015.34
2016-07-19T09:45:12.251Z,1015.38
2016-07-19T09:46:12.317Z,1015.42
2016-07-19T09:47:12.256Z,1015.38
2016-07-19T09:48:12.338Z,1015.41
2016-07-19T09:49:12.403Z,1015.4
2016-07-19T09:50:12.312Z,1015.38
2016-07-19T09:51:12.271Z,1015.36
2016-07-19T09:52:12.343Z,1015.38
2016-07-19T09:53:12.290Z,1015.37
2016-07-19T09:54:13.415Z,1015.36
2016-07-19T09:55:12.337Z,1015.36
2016-07-19T09:56:12.312Z,1015.34
2016-07-19T09:57:13.463Z,1015.33
2016-07-19T09:58:12.359Z,1015.33
2016-07-19T09:59:12.349Z,1015.32
2016-07-19T10:00:12.431Z,1015.37
2016-07-19T10:01:12.404Z,1015.35
2016-07-19T10:02:12.373Z,1015.34
2016-07-19T10:03:12.515Z,1015.36
2016-07-19T10:04:12.457Z,1015.31
2016-07-19T10:05:12.386Z,1015.31
2016-07-19T10:06:12.716Z,1015.28
2016-07-19T10:07:12.403Z,1015.3
2016-07-19T10:08:12.630Z,1015.28
2016-07-19T10:09:12.511Z,1015.29
2016-07-19T10:10:12.464Z,1015.29
2016-07-19T10:11:12.485Z,1015.28
2016-07-19T10:12:12.441Z,1015.31
2016-07-19T10:13:12.462Z,1015.27
2016-07-19T10:14:12.521Z,1015.27
2016-07-19T10:15:12.482Z,1015.24
2016-07-19T10:16:12.578Z,1015.24
2016-07-19T10:17:12.565Z,1015.22
2016-07-19T10:18:12.557Z,1015.19
2016-07-19T10:19:12.661Z,1015.21
2016-07-19T10:20:12.534Z,1015.2
2016-07-19T10:21:12.517Z,1015.18
2016-07-19T10:22:12.595Z,1015.19
2016-07-19T10:23:12.533Z,1015.25
2016-07-19T10:24:12.547Z,1015.24
2016-07-19T10:25:13.223Z,1015.21
2016-07-19T10:26:12.590Z,1015.2
2016-07-19T10:27:12.564Z,1015.2
2016-07-19T10:28:12.571Z,1015.21
2016-07-19T10:29:12.581Z,1015.19
2016-07-19T10:30:12.588Z,1015.17
2016-07-19T10:31:12.745Z,1015.2
2016-07-19T10:32:12.605Z,1015.16
2016-07-19T10:33:12.705Z,1015.19
2016-07-19T10:34:12.619Z,1015.19
2016-07-19T10:35:12.694Z,1015.16
2016-07-19T10:36:12.777Z,1015.15
2016-07-19T10:37:12.643Z,1015.15
2016-07-19T10:38:12.735Z,1015.1
2016-07-19T10:39:12.658Z,1015.13
2016-07-19T10:40:12.665Z,1015.13
2016-07-19T10:41:12.672Z,1015.13
2016-07-19T10:42:12.764Z,1015.11
2016-07-19T10:43:12.868Z,1015.14
2016-07-19T10:44:12.699Z,1015.08
2016-07-19T10:45:12.702Z,1015.08
2016-07-19T10:46:12.709Z,1015.08
2016-07-19T10:47:12.718Z,1015.07
2016-07-19T10:48:12.726Z,1015.03
2016-07-19T10:49:12.787Z,1015.08
2016-07-19T10:50:12.816Z,1015.06
2016-07-19T10:51:12.749Z,1015.01
2016-07-19T10:52:12.756Z,1015.04
2016-07-19T10:53:12.868Z,1015.03
2016-07-19T10:54:12.772Z,1015.03
2016-07-19T10:55:12.790Z,1015.04
2016-07-19T10:56:12.784Z,1015.06
2016-07-19T10:57:12.791Z,1015.04
2016-07-19T10:58:12.800Z,1015.04
2016-07-19T10:59:12.806Z,1014.99
2016-07-19T11:00:12.898Z,1014.97
2016-07-19T11:01:12.822Z,1015.02
2016-07-19T11:02:12.834Z,1015.03
2016-07-19T11:03:12.835Z,1014.98
2016-07-19T11:04:12.905Z,1014.96
2016-07-19T11:05:12.849Z,1014.97
2016-07-19T11:06:12.912Z,1014.94
2016-07-19T11:07:12.860Z,1014.95
2016-07-19T11:08:12.868Z,1014.91
2016-07-19T11:09:12.919Z,1014.96
2016-07-19T11:10:12.923Z,1014.95
2016-07-19T11:11:12.892Z,1014.95
2016-07-19T11:12:12.991Z,1014.97
2016-07-19T11:13:13.068Z,1015.01
2016-07-19T11:14:12.961Z,1014.94
2016-07-19T11:15:12.989Z,1014.94
2016-07-19T11:16:12.923Z,1014.92
2016-07-19T11:17:12.928Z,1014.88
2016-07-19T11:18:12.937Z,1014.9
2016-07-19T11:19:13.002Z,1014.88
2016-07-19T11:20:12.949Z,1014.91
2016-07-19T11:21:12.956Z,1014.86
2016-07-19T11:22:13.035Z,1014.92
2016-07-19T11:23:12.973Z,1014.92
2016-07-19T11:24:12.976Z,1014.81
2016-07-19T11:25:13.036Z,1014.83
2016-07-19T11:26:12.989Z,1014.85
2016-07-19T11:27:13.030Z,1014.8
2016-07-19T11:28:13.008Z,1014.78
2016-07-19T11:29:13.011Z,1014.79
2016-07-19T11:30:13.108Z,1014.79
2016-07-19T11:31:13.024Z,1014.8
2016-07-19T11:32:13.031Z,1014.81
2016-07-19T11:33:13.119Z,1014.78
2016-07-19T11:34:13.043Z,1014.76
2016-07-19T11:35:13.049Z,1014.73
2016-07-19T11:36:13.085Z,1014.77
2016-07-19T11:37:13.060Z,1014.76
2016-07-19T11:38:13.068Z,1014.75
2016-07-19T11:39:13.075Z,1014.76
2016-07-19T11:40:13.081Z,1014.76
2016-07-19T11:41:13.194Z,1014.73
2016-07-19T11:42:13.124Z,1014.68
2016-07-19T11:43:13.198Z,1014.7
2016-07-19T11:44:13.123Z,1014.67
2016-07-19T11:45:13.128Z,1014.65
2016-07-19T11:46:13.125Z,1014.67
2016-07-19T11:47:13.175Z,1014.68
2016-07-19T11:48:13.192Z,1014.68
2016-07-19T11:49:13.223Z,1014.66
2016-07-19T11:50:13.208Z,1014.67
2016-07-19T11:51:13.162Z,1014.66
2016-07-19T11:52:13.170Z,1014.67
2016-07-19T11:53:13.178Z,1014.65
2016-07-19T11:54:13.186Z,1014.64
2016-07-19T11:55:13.194Z,1014.64
2016-07-19T11:56:13.201Z,1014.62
2016-07-19T11:57:13.216Z,1014.62
2016-07-19T11:58:13.219Z,1014.6
2016-07-19T11:59:13.225Z,1014.6
2016-07-19T12:00:13.234Z,1014.61
2016-07-19T12:01:13.241Z,1014.59
2016-07-19T12:02:13.269Z,1014.59
2016-07-19T12:03:13.315Z,1014.57
2016-07-19T12:04:13.266Z,1014.57
2016-07-19T12:05:13.273Z,1014.53
2016-07-19T12:06:13.307Z,1014.51
2016-07-19T12:07:13.289Z,1014.47